createdAt,value
2023-02-24T00:03:54.120Z,973.78
2023-02-24T00:15:54.580Z,973.62
2023-02-24T00:27:55.003Z,973.42
2023-02-24T00:39:55.525Z,973.29
2023-02-24T00:51:55.957Z,973.19
2023-02-24T01:03:56.426Z,973.10
2023-02-24T01:15:56.858Z,972.90
2023-02-24T01:27:57.317Z,972.80
2023-02-24T01:39:57.757Z,972.66
2023-02-24T01:51:58.208Z,972.67
2023-02-24T02:03:58.660Z,972.55
2023-02-24T02:15:59.211Z,972.41
2023-02-24T02:27:59.570Z,972.38
2023-02-24T02:40:00.022Z,972.45
2023-02-24T02:52:00.415Z,972.43
2023-02-24T03:04:00.945Z,972.45
2023-02-24T03:16:01.398Z,972.43
2023-02-24T03:28:01.839Z,972.38
2023-02-24T03:40:02.284Z,972.41
2023-02-24T03:52:02.736Z,972.34
2023-02-24T04:04:03.185Z,972.16
2023-02-24T04:16:03.725Z,972.18
2023-02-24T04:28:04.114Z,972.12
2023-02-24T04:40:04.547Z,972.02
2023-02-24T04:52:04.974Z,971.81
2023-02-24T05:04:05.625Z,971.65
2023-02-24T05:16:05.967Z,971.51
2023-02-24T05:28:06.319Z,971.52
2023-02-24T05:40:06.811Z,971.47
2023-02-24T05:52:07.263Z,971.53
2023-02-24T06:04:07.691Z,971.52
2023-02-24T06:16:08.233Z,971.46
2023-02-24T06:28:08.581Z,971.52
2023-02-24T06:40:09.048Z,971.51
2023-02-24T06:52:09.495Z,971.32
2023-02-24T07:04:10.052Z,971.31
2023-02-24T07:16:10.397Z,971.26
2023-02-24T07:28:10.869Z,971.35
2023-02-24T07:40:11.317Z,971.20
2023-02-24T07:52:11.886Z,971.14
2023-02-24T08:04:12.237Z,970.84
2023-02-24T08:16:12.703Z,970.86
2023-02-24T08:28:13.130Z,970.62
2023-02-24T08:40:13.573Z,970.47
2023-02-24T08:52:14.230Z,970.37
2023-02-24T09:04:14.492Z,970.28
2023-02-24T09:16:15.268Z,970.09
2023-02-24T09:28:15.442Z,969.85
2023-02-24T09:40:15.871Z,969.78
2023-02-24T09:52:16.311Z,969.69
2023-02-24T10:04:21.144Z,969.50
2023-02-24T10:16:17.260Z,969.39
2023-02-24T10:28:17.710Z,969.27
2023-02-24T10:40:18.268Z,969.06
2023-02-24T10:52:18.582Z,968.76
2023-02-24T11:04:19.059Z,968.61
2023-02-24T11:16:19.501Z,968.30
2023-02-24T11:28:19.942Z,968.03
2023-02-24T11:40:20.408Z,967.90
2023-02-24T11:52:20.859Z,967.61
2023-02-24T12:04:21.305Z,967.30
2023-02-24T12:16:21.763Z,966.94
2023-02-24T12:28:22.187Z,966.68
2023-02-24T12:40:22.699Z,966.36
2023-02-24T12:52:23.179Z,966.46
2023-02-24T13:04:23.564Z,966.18
2023-02-24T13:16:24.383Z,966.10
2023-02-24T13:28:24.487Z,966.01
2023-02-24T13:40:24.947Z,965.78
2023-02-24T13:52:25.411Z,965.71
2023-02-24T14:04:27.292Z,965.62
2023-02-24T14:16:26.434Z,965.60
2023-02-24T14:28:26.779Z,965.47
2023-02-24T14:40:27.232Z,965.45
2023-02-24T14:52:27.704Z,965.29
2023-02-24T15:04:28.139Z,965.22
2023-02-24T15:16:28.678Z,965.01
2023-02-24T15:28:29.040Z,964.88
2023-02-24T15:40:29.493Z,964.94
2023-02-24T15:52:29.970Z,964.74
2023-02-24T16:04:30.407Z,964.63
2023-02-24T16:16:30.865Z,964.50
2023-02-24T16:28:31.330Z,964.41
2023-02-24T16:40:31.913Z,964.20
2023-02-24T16:52:32.273Z,964.16
2023-02-24T17:04:32.756Z,963.94
2023-02-24T17:16:33.154Z,963.96
2023-02-24T17:28:33.619Z,963.89
2023-02-24T17:40:34.048Z,963.87
2023-02-24T17:52:34.623Z,963.76
2023-02-24T18:04:34.940Z,963.72
2023-02-24T18:16:35.515Z,963.51
2023-02-24T18:28:35.847Z,963.33
2023-02-24T18:40:36.305Z,963.24
2023-02-24T18:52:36.776Z,963.14
2023-02-24T19:04:37.214Z,963.28
2023-02-24T19:16:37.731Z,963.15
2023-02-24T19:28:38.142Z,962.80
2023-02-24T19:40:38.566Z,962.65
2023-02-24T19:52:39.033Z,962.74
2023-02-24T20:04:39.570Z,962.71
2023-02-24T20:16:40.011Z,962.65
2023-02-24T20:28:40.391Z,962.61
2023-02-24T20:40:40.849Z,962.51
2023-02-24T20:52:41.341Z,962.18
2023-02-24T21:04:41.900Z,962.24
2023-02-24T21:16:42.317Z,962.42
2023-02-24T21:28:42.707Z,962.48
2023-02-24T21:40:43.129Z,962.45
2023-02-24T21:52:43.591Z,962.43
2023-02-24T22:04:44.011Z,962.34
2023-02-24T22:16:44.537Z,962.25
2023-02-24T22:28:44.970Z,962.00
2023-02-24T22:40:45.401Z,961.76
2023-02-24T22:52:45.855Z,961.58
2023-02-24T23:04:46.313Z,961.65
2023-02-24T23:16:46.799Z,961.41
2023-02-24T23:28:47.206Z,961.31
2023-02-24T23:40:50.401Z,961.36
2023-02-24T23:52:48.107Z,961.08
